createdAt,value
2022-12-04T00:00:52.750Z,24.23
2022-12-04T00:03:58.947Z,20.60
2022-12-04T00:07:02.392Z,21.80
2022-12-04T00:10:06.262Z,21.38
2022-12-04T00:13:09.681Z,20.63
2022-12-04T00:16:16.572Z,20.60
2022-12-04T00:19:20.022Z,20.55
2022-12-04T00:22:24.415Z,20.80
2022-12-04T00:25:28.015Z,22.92
2022-12-04T00:28:31.462Z,21.53
2022-12-04T00:31:35.100Z,19.80
2022-12-04T00:34:38.595Z,19.20
2022-12-04T00:37:42.334Z,19.15
2022-12-04T00:40:52.949Z,20.80
2022-12-04T00:43:56.432Z,19.83
2022-12-04T00:47:00.147Z,20.98
2022-12-04T00:50:03.759Z,20.25
2022-12-04T00:53:07.370Z,22.25
2022-12-04T00:56:14.932Z,22.13
2022-12-04T00:59:18.378Z,21.50
2022-12-04T01:02:22.107Z,18.58
2022-12-04T01:05:26.220Z,18.52
2022-12-04T01:08:29.791Z,17.65
2022-12-04T01:11:33.970Z,18.55
2022-12-04T01:14:37.702Z,19.40
2022-12-04T01:17:41.155Z,19.50
2022-12-04T01:20:49.789Z,20.85
2022-12-04T01:23:53.622Z,19.88
2022-12-04T01:26:57.359Z,20.63
2022-12-04T01:30:00.892Z,21.10
2022-12-04T01:33:04.345Z,19.55
2022-12-04T01:36:11.309Z,19.67
2022-12-04T01:39:15.194Z,20.15
2022-12-04T01:42:18.574Z,19.63
2022-12-04T01:45:43.334Z,21.27
2022-12-04T01:48:54.540Z,20.90
2022-12-04T01:52:09.182Z,18.83
2022-12-04T01:55:13.074Z,20.60
2022-12-04T01:58:21.799Z,23.27
2022-12-04T02:01:27.719Z,21.93
2022-12-04T02:04:33.447Z,20.80
2022-12-04T02:07:39.677Z,25.95
2022-12-04T02:10:58.163Z,23.20
2022-12-04T02:14:07.080Z,18.25
2022-12-04T02:17:19.729Z,17.27
2022-12-04T02:20:40.905Z,19.25
2022-12-04T02:24:14.395Z,22.88
2022-12-04T02:27:33.053Z,23.95
2022-12-04T02:30:41.486Z,24.88
2022-12-04T02:33:48.508Z,19.40
2022-12-04T02:37:01.904Z,24.08
2022-12-04T02:40:25.350Z,29.88
2022-12-04T02:43:38.114Z,25.70
2022-12-04T02:46:45.852Z,26.88
2022-12-04T02:50:00.266Z,23.67
2022-12-04T02:53:26.594Z,20.83
2022-12-04T02:56:34.772Z,17.90
2022-12-04T02:59:47.329Z,23.85
2022-12-04T03:03:02.730Z,19.38
2022-12-04T03:06:11.767Z,14.83
2022-12-04T03:09:39.708Z,15.52
2022-12-04T03:12:56.767Z,15.90
2022-12-04T03:16:05.869Z,17.33
2022-12-04T03:19:23.364Z,18.23
2022-12-04T03:22:27.868Z,41.67
2022-12-04T03:25:38.488Z,21.42
2022-12-04T03:28:56.899Z,19.25
2022-12-04T03:32:05.160Z,19.60
2022-12-04T03:35:30.922Z,17.20
2022-12-04T03:38:59.450Z,17.77
2022-12-04T03:42:20.216Z,16.77
2022-12-04T03:45:56.642Z,15.10
2022-12-04T03:49:19.038Z,14.63
2022-12-04T03:52:45.629Z,15.87
2022-12-04T03:56:01.396Z,16.55
2022-12-04T03:59:18.014Z,15.98
2022-12-04T04:02:25.510Z,16.27
2022-12-04T04:05:30.310Z,16.20
2022-12-04T04:08:39.167Z,18.57
2022-12-04T04:12:08.007Z,17.80
2022-12-04T04:15:34.881Z,16.98
2022-12-04T04:18:58.640Z,16.50
2022-12-04T04:22:23.971Z,16.10
2022-12-04T04:25:29.347Z,15.93
2022-12-04T04:28:36.079Z,16.02
2022-12-04T04:31:56.886Z,15.98
2022-12-04T04:35:19.399Z,16.05
2022-12-04T04:38:30.782Z,15.35
2022-12-04T04:41:43.448Z,15.20
2022-12-04T04:45:01.765Z,13.40
2022-12-04T04:48:20.495Z,15.55
2022-12-04T04:51:24.859Z,16.40
2022-12-04T04:54:30.779Z,15.95
2022-12-04T04:57:36.291Z,16.15
2022-12-04T05:00:40.587Z,13.63
2022-12-04T05:03:44.168Z,14.60
2022-12-04T05:06:49.080Z,14.15
2022-12-04T05:09:52.684Z,14.35
2022-12-04T05:12:56.103Z,13.63
2022-12-04T05:16:01.081Z,14.30
2022-12-04T05:19:23.093Z,14.30
2022-12-04T05:22:36.834Z,13.63
2022-12-04T05:25:40.138Z,15.25
2022-12-04T05:28:43.632Z,18.35
2022-12-04T05:31:47.276Z,20.33
2022-12-04T05:34:56.344Z,16.63
2022-12-04T05:38:00.013Z,17.30
2022-12-04T05:41:05.663Z,15.75
2022-12-04T05:44:09.034Z,17.00
2022-12-04T05:47:12.411Z,16.83
2022-12-04T05:50:15.840Z,15.57
2022-12-04T05:53:19.294Z,14.00
2022-12-04T05:56:22.800Z,14.15
2022-12-04T05:59:26.174Z,16.57
2022-12-04T06:02:29.584Z,28.92
2022-12-04T06:05:33.958Z,23.98
2022-12-04T06:08:37.286Z,19.30
2022-12-04T06:11:41.981Z,22.87
2022-12-04T06:14:45.371Z,17.15
2022-12-04T06:17:48.758Z,16.45
2022-12-04T06:20:52.186Z,15.13
2022-12-04T06:23:56.472Z,14.33
2022-12-04T06:30:24.118Z,18.85
2022-12-04T06:33:27.546Z,17.77
2022-12-04T06:36:31.369Z,21.63
2022-12-04T06:39:34.795Z,20.80
2022-12-04T06:42:38.205Z,22.52
2022-12-04T06:45:41.712Z,21.48
2022-12-04T06:48:45.679Z,22.57
2022-12-04T06:51:49.139Z,20.35
2022-12-04T06:54:52.586Z,20.77
2022-12-04T06:57:55.975Z,20.65
2022-12-04T07:00:59.582Z,17.60
2022-12-04T07:04:04.507Z,15.43
2022-12-04T07:07:10.205Z,16.13
2022-12-04T07:10:13.631Z,17.52
2022-12-04T07:13:17.166Z,17.95
2022-12-04T07:16:22.757Z,18.15
2022-12-04T07:19:26.196Z,18.67
2022-12-04T07:22:29.620Z,18.05
2022-12-04T07:25:32.939Z,16.05
2022-12-04T07:28:37.739Z,15.50
2022-12-04T07:31:41.169Z,16.80
2022-12-04T07:34:44.680Z,15.97
2022-12-04T07:37:48.076Z,16.13
2022-12-04T07:40:51.468Z,16.27
2022-12-04T07:43:55.299Z,17.25
2022-12-04T07:46:58.867Z,16.20
2022-12-04T07:50:02.533Z,17.53
2022-12-04T07:53:06.142Z,17.45
2022-12-04T07:56:11.869Z,17.55
2022-12-04T07:59:15.324Z,18.95
2022-12-04T08:02:19.059Z,17.08
2022-12-04T08:05:22.622Z,17.30
2022-12-04T08:08:25.982Z,14.82
2022-12-04T08:11:29.984Z,12.82
2022-12-04T08:14:33.411Z,12.32
2022-12-04T08:17:40.291Z,13.00
2022-12-04T08:20:44.152Z,11.00
2022-12-04T08:23:48.874Z,11.88
2022-12-04T08:26:52.347Z,12.05
2022-12-04T08:29:56.000Z,10.80
2022-12-04T08:32:59.535Z,12.55
2022-12-04T08:36:06.280Z,12.67
2022-12-04T08:39:12.896Z,10.80
2022-12-04T08:42:16.278Z,11.60
2022-12-04T08:45:19.635Z,11.18
2022-12-04T08:48:23.110Z,10.93
2022-12-04T08:51:31.847Z,11.10
2022-12-04T08:54:36.382Z,11.43
2022-12-04T08:57:39.974Z,11.75
2022-12-04T09:00:44.056Z,13.15
2022-12-04T09:03:47.626Z,11.77
2022-12-04T09:06:51.239Z,9.97
2022-12-04T09:09:54.829Z,10.00
2022-12-04T09:12:58.383Z,11.45
2022-12-04T09:16:05.895Z,10.70
2022-12-04T09:19:09.571Z,10.48
2022-12-04T09:22:13.326Z,11.60
2022-12-04T09:25:17.678Z,11.15
2022-12-04T09:28:21.981Z,12.65
2022-12-04T09:31:26.272Z,10.57
2022-12-04T09:34:29.868Z,11.25
2022-12-04T09:37:34.446Z,10.13
2022-12-04T09:40:48.424Z,10.57
2022-12-04T09:44:00.669Z,10.60
2022-12-04T09:47:11.768Z,10.75
2022-12-04T09:50:22.468Z,9.90
2022-12-04T09:53:32.487Z,10.07
2022-12-04T09:56:36.757Z,9.95
2022-12-04T09:59:40.431Z,9.43
2022-12-04T10:02:50.124Z,8.23
2022-12-04T10:05:58.110Z,9.27
2022-12-04T10:09:12.419Z,8.23
2022-12-04T10:12:22.885Z,8.23
2022-12-04T10:15:46.824Z,5.95
2022-12-04T10:19:12.902Z,5.82
2022-12-04T10:22:41.851Z,6.25
2022-12-04T10:25:45.534Z,6.90
2022-12-04T10:28:57.135Z,7.30
2022-12-04T10:32:21.507Z,5.60
2022-12-04T10:35:31.048Z,7.88
2022-12-04T10:39:05.558Z,5.97
2022-12-04T10:42:32.351Z,7.33
2022-12-04T10:45:35.887Z,9.02
2022-12-04T10:48:42.032Z,8.65
2022-12-04T10:51:46.465Z,7.32
2022-12-04T10:54:55.651Z,6.78
2022-12-04T10:57:59.107Z,6.97
2022-12-04T11:01:06.807Z,7.03
2022-12-04T11:04:24.949Z,7.80
2022-12-04T11:07:47.075Z,7.35
2022-12-04T11:11:02.250Z,7.38
2022-12-04T11:14:16.342Z,6.70
2022-12-04T11:17:20.524Z,6.18
2022-12-04T11:20:27.358Z,6.25
2022-12-04T11:23:42.314Z,5.32
2022-12-04T11:26:48.450Z,6.72
2022-12-04T11:29:52.457Z,5.73
2022-12-04T11:32:56.818Z,5.78
2022-12-04T11:36:03.531Z,6.97
2022-12-04T11:39:12.890Z,7.22
2022-12-04T11:42:25.371Z,7.35
2022-12-04T11:45:29.209Z,6.70
2022-12-04T11:48:42.092Z,6.88
2022-12-04T11:51:50.354Z,7.32
2022-12-04T11:55:00.052Z,6.85
2022-12-04T11:58:19.786Z,7.88
2022-12-04T12:01:57.716Z,6.80
2022-12-04T12:05:17.103Z,7.65
2022-12-04T12:08:32.780Z,7.43
2022-12-04T12:12:00.679Z,7.18
2022-12-04T12:15:41.450Z,6.95
2022-12-04T12:19:02.112Z,7.17
2022-12-04T12:22:30.055Z,6.57
2022-12-04T12:25:38.759Z,6.22
2022-12-04T12:28:57.740Z,6.40
2022-12-04T12:32:22.980Z,5.65
2022-12-04T12:35:39.809Z,6.40
2022-12-04T12:39:05.348Z,6.32
2022-12-04T12:42:20.799Z,5.50
2022-12-04T12:45:52.242Z,6.75
2022-12-04T12:49:28.204Z,6.28
2022-12-04T12:52:39.729Z,6.37
2022-12-04T12:56:00.358Z,6.47
2022-12-04T12:59:10.672Z,6.68
2022-12-04T13:02:27.057Z,5.70
2022-12-04T13:05:52.346Z,6.90
2022-12-04T13:09:12.427Z,6.47
2022-12-04T13:12:18.357Z,6.88
2022-12-04T13:15:26.935Z,6.60
2022-12-04T13:18:51.098Z,6.28
2022-12-04T13:22:17.364Z,7.18
2022-12-04T13:25:44.905Z,6.43
2022-12-04T13:29:13.675Z,5.65
2022-12-04T13:33:04.699Z,6.40
2022-12-04T13:36:41.828Z,6.88
2022-12-04T13:40:23.461Z,6.63
2022-12-04T13:43:29.741Z,6.87
2022-12-04T13:46:36.550Z,7.57
2022-12-04T13:49:46.153Z,7.55
2022-12-04T13:52:49.727Z,7.80
2022-12-04T13:55:56.978Z,10.55
2022-12-04T13:59:06.016Z,12.60
2022-12-04T14:02:38.450Z,16.88
2022-12-04T14:05:43.567Z,23.80
2022-12-04T14:08:47.368Z,22.60
2022-12-04T14:11:57.777Z,20.90
2022-12-04T14:15:22.216Z,17.50
2022-12-04T14:18:30.910Z,18.83
2022-12-04T14:21:41.948Z,21.95
2022-12-04T14:24:45.706Z,17.20
2022-12-04T14:27:54.601Z,13.50
2022-12-04T14:31:21.370Z,11.60
2022-12-04T14:34:29.540Z,14.25
2022-12-04T14:37:37.685Z,12.27
2022-12-04T14:40:46.960Z,16.13
2022-12-04T14:43:52.977Z,27.75
2022-12-04T14:47:08.490Z,25.77
2022-12-04T14:50:27.156Z,20.98
2022-12-04T14:53:53.223Z,22.95
2022-12-04T14:57:12.253Z,35.20
2022-12-04T15:00:18.458Z,21.60
2022-12-04T15:03:23.692Z,20.87
2022-12-04T15:06:30.523Z,22.27
2022-12-04T15:09:53.759Z,18.85
2022-12-04T15:12:57.513Z,17.35
2022-12-04T15:16:30.268Z,14.10
2022-12-04T15:19:33.880Z,20.67
2022-12-04T15:22:37.354Z,11.00
2022-12-04T15:25:55.871Z,8.35
2022-12-04T15:29:03.153Z,8.77
2022-12-04T15:32:12.076Z,9.00
2022-12-04T15:35:27.934Z,14.67
2022-12-04T15:38:32.261Z,15.88
2022-12-04T15:41:37.687Z,21.38
2022-12-04T15:44:55.219Z,16.92
2022-12-04T15:47:59.203Z,15.63
2022-12-04T15:51:06.428Z,10.30
2022-12-04T15:54:24.694Z,14.13
2022-12-04T15:57:36.482Z,19.38
2022-12-04T16:00:42.588Z,19.55
2022-12-04T16:03:51.416Z,18.27
2022-12-04T16:06:56.378Z,8.70
2022-12-04T16:10:04.129Z,7.20
2022-12-04T16:13:26.345Z,7.75
2022-12-04T16:16:30.364Z,7.70
2022-12-04T16:19:37.420Z,8.40
2022-12-04T16:22:42.515Z,7.90
2022-12-04T16:25:48.934Z,7.05
2022-12-04T16:28:55.830Z,7.75
2022-12-04T16:32:03.226Z,7.18
2022-12-04T16:35:07.475Z,7.95
2022-12-04T16:38:16.765Z,7.30
2022-12-04T16:41:21.620Z,6.78
2022-12-04T16:44:25.918Z,8.52
2022-12-04T16:47:29.427Z,14.00
2022-12-04T16:50:33.034Z,15.77
2022-12-04T16:53:37.865Z,15.10
2022-12-04T16:56:42.375Z,15.00
2022-12-04T16:59:46.092Z,11.40
2022-12-04T17:02:50.036Z,9.85
2022-12-04T17:05:53.968Z,10.68
2022-12-04T17:08:57.751Z,11.20
2022-12-04T17:12:01.181Z,11.18
2022-12-04T17:15:05.213Z,15.02
2022-12-04T17:18:12.954Z,12.43
2022-12-04T17:21:18.261Z,11.55
2022-12-04T17:24:21.865Z,10.60
2022-12-04T17:27:26.027Z,9.60
2022-12-04T17:30:34.430Z,9.63
2022-12-04T17:33:39.631Z,8.15
2022-12-04T17:36:43.099Z,7.80
2022-12-04T17:39:46.956Z,9.80
2022-12-04T17:42:50.632Z,9.30
2022-12-04T17:45:54.240Z,8.65
2022-12-04T17:49:00.527Z,8.98
2022-12-04T17:52:06.516Z,8.77
2022-12-04T17:55:10.243Z,7.93
2022-12-04T17:58:13.996Z,7.47
2022-12-04T18:01:20.338Z,8.52
2022-12-04T18:04:25.076Z,8.13
2022-12-04T18:07:30.677Z,7.97
2022-12-04T18:10:35.597Z,7.50
2022-12-04T18:13:39.927Z,7.63
2022-12-04T18:20:04.611Z,7.35
2022-12-04T18:23:09.553Z,7.55
2022-12-04T18:26:18.346Z,8.18
2022-12-04T18:29:25.242Z,15.07
2022-12-04T18:32:30.196Z,10.50
2022-12-04T18:35:33.551Z,13.23
2022-12-04T18:38:37.541Z,13.57
2022-12-04T18:41:42.027Z,12.05
2022-12-04T18:44:46.671Z,16.17
2022-12-04T18:47:50.292Z,18.10
2022-12-04T18:50:54.200Z,21.83
2022-12-04T18:54:01.167Z,21.70
2022-12-04T18:57:05.577Z,17.08
2022-12-04T19:00:09.980Z,39.20
2022-12-04T19:03:13.623Z,19.90
2022-12-04T19:06:18.102Z,19.05
2022-12-04T19:09:40.716Z,17.15
2022-12-04T19:12:44.973Z,26.25
2022-12-04T19:15:48.678Z,16.67
2022-12-04T19:18:52.438Z,23.15
2022-12-04T19:21:56.212Z,20.63
2022-12-04T19:24:59.779Z,18.83
2022-12-04T19:28:04.601Z,15.43
2022-12-04T19:31:19.585Z,13.63
2022-12-04T19:34:23.402Z,13.07
2022-12-04T19:37:27.628Z,12.80
2022-12-04T19:40:31.309Z,27.23
2022-12-04T19:43:35.168Z,25.98
2022-12-04T19:46:39.224Z,16.10
2022-12-04T19:49:43.121Z,14.35
2022-12-04T19:52:46.790Z,24.48
2022-12-04T19:55:50.344Z,21.23
2022-12-04T19:58:57.075Z,15.70
2022-12-04T20:02:00.788Z,14.37
2022-12-04T20:05:04.587Z,16.08
2022-12-04T20:11:15.686Z,13.30
2022-12-04T20:14:19.496Z,15.90
2022-12-04T20:17:23.227Z,19.00
2022-12-04T20:20:26.920Z,35.40
2022-12-04T20:23:30.580Z,25.67
2022-12-04T20:26:38.435Z,18.00
2022-12-04T20:29:43.168Z,18.98
2022-12-04T20:32:46.898Z,24.17
2022-12-04T20:35:50.706Z,36.95
2022-12-04T20:38:58.193Z,22.80
2022-12-04T20:42:01.875Z,22.60
2022-12-04T20:45:06.170Z,24.77
2022-12-04T20:48:09.942Z,24.97
2022-12-04T20:51:14.580Z,27.80
2022-12-04T20:54:20.787Z,25.42
2022-12-04T20:57:24.266Z,22.63
2022-12-04T21:00:28.749Z,20.45
2022-12-04T21:03:32.090Z,20.57
2022-12-04T21:06:40.582Z,16.52
2022-12-04T21:09:44.366Z,15.02
2022-12-04T21:13:06.319Z,14.32
2022-12-04T21:16:10.155Z,19.23
2022-12-04T21:19:16.751Z,25.60
2022-12-04T21:22:20.840Z,21.08
2022-12-04T21:25:25.380Z,23.25
2022-12-04T21:28:29.035Z,24.15
2022-12-04T21:31:33.405Z,17.80
2022-12-04T21:34:36.855Z,22.57
2022-12-04T21:37:40.269Z,25.65
2022-12-04T21:40:43.661Z,24.23
2022-12-04T21:43:46.992Z,20.63
2022-12-04T21:46:51.196Z,17.55
2022-12-04T21:49:54.913Z,21.83
2022-12-04T21:52:58.421Z,24.33
2022-12-04T21:56:01.757Z,24.05
2022-12-04T21:59:05.213Z,25.98
2022-12-04T22:02:10.132Z,21.35
2022-12-04T22:05:13.550Z,22.90
2022-12-04T22:08:17.023Z,19.95
2022-12-04T22:11:21.378Z,19.45
2022-12-04T22:14:24.686Z,19.67
2022-12-04T22:17:30.138Z,20.05
2022-12-04T22:20:33.906Z,25.07
2022-12-04T22:23:37.656Z,25.63
2022-12-04T22:26:41.110Z,26.48
2022-12-04T22:29:52.549Z,27.98
2022-12-04T22:32:55.944Z,26.73
2022-12-04T22:36:08.529Z,28.30
2022-12-04T22:39:11.982Z,30.58
2022-12-04T22:42:15.361Z,42.90
2022-12-04T22:45:18.917Z,32.10
2022-12-04T22:48:22.722Z,26.45
2022-12-04T22:51:27.190Z,25.13
2022-12-04T22:54:30.557Z,21.45
2022-12-04T22:57:35.036Z,17.95
2022-12-04T23:00:39.158Z,18.00
2022-12-04T23:03:42.690Z,26.65
2022-12-04T23:06:46.086Z,41.43
2022-12-04T23:09:49.624Z,21.90
2022-12-04T23:12:52.994Z,18.48
2022-12-04T23:15:56.399Z,19.35
2022-12-04T23:18:59.936Z,17.55
2022-12-04T23:22:03.327Z,18.83
2022-12-04T23:25:07.255Z,31.02
2022-12-04T23:28:10.655Z,24.17
2022-12-04T23:31:14.762Z,19.75
2022-12-04T23:34:18.215Z,19.90
2022-12-04T23:37:21.710Z,19.77
2022-12-04T23:40:25.204Z,28.48
2022-12-04T23:43:28.820Z,31.80
2022-12-04T23:46:33.853Z,27.95
2022-12-04T23:49:37.290Z,29.55
2022-12-04T23:52:40.968Z,19.33
2022-12-04T23:55:44.439Z,23.73
2022-12-04T23:58:49.791Z,23.30
